sensor_id;sensor_type;location;lat;lon;timestamp;P1;durP1;ratioP1;P2;durP2;ratioP2
12832;SDS011;6483;51.310;4.462;2022-08-23T00:02:07;6.25;;;4.10;;
12832;SDS011;6483;51.310;4.462;2022-08-23T00:04:38;4.65;;;3.60;;
12832;SDS011;6483;51.310;4.462;2022-08-23T00:07:06;5.47;;;3.65;;
12832;SDS011;6483;51.310;4.462;2022-08-23T00:09:34;3.72;;;3.30;;
12832;SDS011;6483;51.310;4.462;2022-08-23T00:12:24;4.88;;;3.58;;
12832;SDS011;6483;51.310;4.462;2022-08-23T00:14:51;5.90;;;3.40;;
12832;SDS011;6483;51.310;4.462;2022-08-23T00:17:19;4.20;;;3.30;;
12832;SDS011;6483;51.310;4.462;2022-08-23T00:19:45;6.22;;;3.42;;
12832;SDS011;6483;51.310;4.462;2022-08-23T00:22:12;6.28;;;4.05;;
12832;SDS011;6483;51.310;4.462;2022-08-23T00:24:42;7.57;;;3.90;;
12832;SDS011;6483;51.310;4.462;2022-08-23T00:27:10;5.60;;;3.60;;
12832;SDS011;6483;51.310;4.462;2022-08-23T00:29:42;6.40;;;3.95;;
12832;SDS011;6483;51.310;4.462;2022-08-23T00:32:26;8.27;;;4.07;;
12832;SDS011;6483;51.310;4.462;2022-08-23T00:34:56;7.22;;;4.25;;
12832;SDS011;6483;51.310;4.462;2022-08-23T00:37:25;6.28;;;4.20;;
12832;SDS011;6483;51.310;4.462;2022-08-23T00:39:51;4.68;;;3.55;;
12832;SDS011;6483;51.310;4.462;2022-08-23T00:45:30;6.05;;;4.38;;
12832;SDS011;6483;51.310;4.462;2022-08-23T00:48:26;9.50;;;4.47;;
12832;SDS011;6483;51.310;4.462;2022-08-23T00:50:54;9.02;;;4.28;;
12832;SDS011;6483;51.310;4.462;2022-08-23T00:53:42;7.68;;;4.60;;
12832;SDS011;6483;51.310;4.462;2022-08-23T00:56:11;5.43;;;4.50;;
12832;SDS011;6483;51.310;4.462;2022-08-23T00:58:39;7.60;;;4.53;;
12832;SDS011;6483;51.310;4.462;2022-08-23T01:01:07;5.47;;;4.53;;
12832;SDS011;6483;51.310;4.462;2022-08-23T01:03:34;7.82;;;4.45;;
12832;SDS011;6483;51.310;4.462;2022-08-23T01:06:07;6.03;;;4.43;;
12832;SDS011;6483;51.310;4.462;2022-08-23T01:08:34;6.45;;;4.20;;
12832;SDS011;6483;51.310;4.462;2022-08-23T01:11:12;9.80;;;4.97;;
12832;SDS011;6483;51.310;4.462;2022-08-23T01:16:23;5.72;;;4.35;;
12832;SDS011;6483;51.310;4.462;2022-08-23T01:18:57;5.57;;;4.57;;
12832;SDS011;6483;51.310;4.462;2022-08-23T01:21:29;6.75;;;4.28;;
12832;SDS011;6483;51.310;4.462;2022-08-23T01:24:13;6.13;;;4.70;;
12832;SDS011;6483;51.310;4.462;2022-08-23T01:26:40;7.53;;;4.70;;
12832;SDS011;6483;51.310;4.462;2022-08-23T01:29:06;9.88;;;5.35;;
12832;SDS011;6483;51.310;4.462;2022-08-23T01:31:33;5.25;;;4.72;;
12832;SDS011;6483;51.310;4.462;2022-08-23T01:34:01;8.38;;;4.97;;
12832;SDS011;6483;51.310;4.462;2022-08-23T01:36:31;5.80;;;4.70;;
12832;SDS011;6483;51.310;4.462;2022-08-23T01:39:00;6.78;;;5.20;;
12832;SDS011;6483;51.310;4.462;2022-08-23T01:41:33;7.28;;;5.03;;
12832;SDS011;6483;51.310;4.462;2022-08-23T01:44:02;7.10;;;5.28;;
12832;SDS011;6483;51.310;4.462;2022-08-23T01:46:29;7.75;;;4.95;;
12832;SDS011;6483;51.310;4.462;2022-08-23T01:48:56;7.28;;;5.03;;
12832;SDS011;6483;51.310;4.462;2022-08-23T01:51:22;6.95;;;5.22;;
12832;SDS011;6483;51.310;4.462;2022-08-23T01:54:08;7.88;;;5.05;;
12832;SDS011;6483;51.310;4.462;2022-08-23T01:56:35;9.75;;;5.00;;
12832;SDS011;6483;51.310;4.462;2022-08-23T01:59:05;7.03;;;4.88;;
12832;SDS011;6483;51.310;4.462;2022-08-23T02:01:33;5.72;;;4.45;;
12832;SDS011;6483;51.310;4.462;2022-08-23T02:03:59;5.55;;;4.47;;
12832;SDS011;6483;51.310;4.462;2022-08-23T02:06:25;6.47;;;4.60;;
12832;SDS011;6483;51.310;4.462;2022-08-23T02:08:54;6.80;;;4.60;;
12832;SDS011;6483;51.310;4.462;2022-08-23T02:11:28;5.00;;;4.03;;
12832;SDS011;6483;51.310;4.462;2022-08-23T02:13:56;6.47;;;4.25;;
12832;SDS011;6483;51.310;4.462;2022-08-23T02:16:25;6.57;;;4.05;;
12832;SDS011;6483;51.310;4.462;2022-08-23T02:18:59;5.28;;;4.50;;
12832;SDS011;6483;51.310;4.462;2022-08-23T02:21:27;7.10;;;4.45;;
12832;SDS011;6483;51.310;4.462;2022-08-23T02:23:58;8.00;;;4.57;;
12832;SDS011;6483;51.310;4.462;2022-08-23T02:26:24;6.00;;;4.50;;
12832;SDS011;6483;51.310;4.462;2022-08-23T02:28:50;5.22;;;4.72;;
12832;SDS011;6483;51.310;4.462;2022-08-23T02:31:16;5.65;;;4.45;;
12832;SDS011;6483;51.310;4.462;2022-08-23T02:33:48;8.05;;;4.10;;
12832;SDS011;6483;51.310;4.462;2022-08-23T02:36:14;5.45;;;4.10;;
12832;SDS011;6483;51.310;4.462;2022-08-23T02:38:40;5.10;;;3.97;;
12832;SDS011;6483;51.310;4.462;2022-08-23T02:41:06;6.60;;;4.20;;
12832;SDS011;6483;51.310;4.462;2022-08-23T02:43:38;4.97;;;4.32;;
12832;SDS011;6483;51.310;4.462;2022-08-23T02:46:04;4.55;;;3.97;;
12832;SDS011;6483;51.310;4.462;2022-08-23T02:48:33;4.43;;;3.90;;
12832;SDS011;6483;51.310;4.462;2022-08-23T02:51:01;6.13;;;4.65;;
12832;SDS011;6483;51.310;4.462;2022-08-23T02:53:28;4.65;;;4.07;;
12832;SDS011;6483;51.310;4.462;2022-08-23T02:55:55;5.57;;;4.70;;
12832;SDS011;6483;51.310;4.462;2022-08-23T02:58:21;4.35;;;3.95;;
12832;SDS011;6483;51.310;4.462;2022-08-23T03:00:47;8.52;;;4.53;;
12832;SDS011;6483;51.310;4.462;2022-08-23T03:03:14;7.75;;;5.00;;
12832;SDS011;6483;51.310;4.462;2022-08-23T03:06:04;7.50;;;4.55;;
12832;SDS011;6483;51.310;4.462;2022-08-23T03:08:29;5.60;;;4.50;;
12832;SDS011;6483;51.310;4.462;2022-08-23T03:10:58;6.72;;;4.97;;
12832;SDS011;6483;51.310;4.462;2022-08-23T03:13:25;5.90;;;5.18;;
12832;SDS011;6483;51.310;4.462;2022-08-23T03:15:51;7.45;;;5.45;;
12832;SDS011;6483;51.310;4.462;2022-08-23T03:18:19;6.15;;;5.13;;
12832;SDS011;6483;51.310;4.462;2022-08-23T03:20:48;7.43;;;5.10;;
12832;SDS011;6483;51.310;4.462;2022-08-23T03:23:13;6.43;;;4.53;;
12832;SDS011;6483;51.310;4.462;2022-08-23T03:25:39;8.73;;;5.05;;
12832;SDS011;6483;51.310;4.462;2022-08-23T03:28:05;6.13;;;5.18;;
12832;SDS011;6483;51.310;4.462;2022-08-23T03:30:32;8.95;;;5.93;;
12832;SDS011;6483;51.310;4.462;2022-08-23T03:32:59;7.47;;;5.75;;
12832;SDS011;6483;51.310;4.462;2022-08-23T03:35:26;6.53;;;4.90;;
12832;SDS011;6483;51.310;4.462;2022-08-23T03:37:52;9.13;;;6.03;;
12832;SDS011;6483;51.310;4.462;2022-08-23T03:40:21;6.63;;;5.10;;
12832;SDS011;6483;51.310;4.462;2022-08-23T03:42:50;8.80;;;5.55;;
12832;SDS011;6483;51.310;4.462;2022-08-23T03:45:16;6.63;;;5.38;;
12832;SDS011;6483;51.310;4.462;2022-08-23T03:47:42;6.15;;;5.15;;
12832;SDS011;6483;51.310;4.462;2022-08-23T03:50:08;5.20;;;4.50;;
12832;SDS011;6483;51.310;4.462;2022-08-23T03:52:35;5.57;;;5.07;;
12832;SDS011;6483;51.310;4.462;2022-08-23T03:55:06;6.07;;;5.45;;
12832;SDS011;6483;51.310;4.462;2022-08-23T03:57:32;7.60;;;5.72;;
12832;SDS011;6483;51.310;4.462;2022-08-23T03:59:58;5.78;;;5.20;;
12832;SDS011;6483;51.310;4.462;2022-08-23T04:02:24;7.18;;;5.70;;
12832;SDS011;6483;51.310;4.462;2022-08-23T04:04:50;10.95;;;6.15;;
12832;SDS011;6483;51.310;4.462;2022-08-23T04:07:19;8.82;;;6.05;;
12832;SDS011;6483;51.310;4.462;2022-08-23T04:09:45;14.07;;;7.00;;
12832;SDS011;6483;51.310;4.462;2022-08-23T04:12:11;7.70;;;5.72;;
12832;SDS011;6483;51.310;4.462;2022-08-23T04:14:37;9.48;;;6.40;;
12832;SDS011;6483;51.310;4.462;2022-08-23T04:17:03;9.30;;;6.25;;
12832;SDS011;6483;51.310;4.462;2022-08-23T04:19:31;8.23;;;6.18;;
12832;SDS011;6483;51.310;4.462;2022-08-23T04:21:57;6.82;;;5.22;;
12832;SDS011;6483;51.310;4.462;2022-08-23T04:24:23;6.05;;;5.18;;
12832;SDS011;6483;51.310;4.462;2022-08-23T04:26:49;6.25;;;5.55;;
12832;SDS011;6483;51.310;4.462;2022-08-23T04:29:15;9.95;;;6.00;;
12832;SDS011;6483;51.310;4.462;2022-08-23T04:31:44;7.32;;;6.50;;
12832;SDS011;6483;51.310;4.462;2022-08-23T04:34:10;7.90;;;5.95;;
12832;SDS011;6483;51.310;4.462;2022-08-23T04:36:41;10.05;;;5.78;;
12832;SDS011;6483;51.310;4.462;2022-08-23T04:39:10;8.10;;;6.43;;
12832;SDS011;6483;51.310;4.462;2022-08-23T04:41:36;7.20;;;6.07;;
12832;SDS011;6483;51.310;4.462;2022-08-23T04:44:20;8.25;;;6.82;;
12832;SDS011;6483;51.310;4.462;2022-08-23T04:46:46;7.30;;;6.13;;
12832;SDS011;6483;51.310;4.462;2022-08-23T04:49:15;7.18;;;6.32;;
12832;SDS011;6483;51.310;4.462;2022-08-23T04:51:42;8.40;;;6.78;;
12832;SDS011;6483;51.310;4.462;2022-08-23T04:54:08;8.13;;;6.70;;
12832;SDS011;6483;51.310;4.462;2022-08-23T04:56:34;9.15;;;6.68;;
12832;SDS011;6483;51.310;4.462;2022-08-23T04:59:00;8.40;;;6.15;;
12832;SDS011;6483;51.310;4.462;2022-08-23T05:01:26;11.48;;;7.85;;
12832;SDS011;6483;51.310;4.462;2022-08-23T05:03:55;12.32;;;7.55;;
12832;SDS011;6483;51.310;4.462;2022-08-23T05:06:24;11.10;;;7.43;;
12832;SDS011;6483;51.310;4.462;2022-08-23T05:08:53;10.50;;;6.72;;
12832;SDS011;6483;51.310;4.462;2022-08-23T05:11:18;9.30;;;7.45;;
12832;SDS011;6483;51.310;4.462;2022-08-23T05:13:47;8.55;;;7.53;;
12832;SDS011;6483;51.310;4.462;2022-08-23T05:16:15;10.98;;;7.22;;
12832;SDS011;6483;51.310;4.462;2022-08-23T05:18:41;8.20;;;7.35;;
12832;SDS011;6483;51.310;4.462;2022-08-23T05:21:07;8.18;;;6.78;;
12832;SDS011;6483;51.310;4.462;2022-08-23T05:23:46;9.95;;;7.40;;
12832;SDS011;6483;51.310;4.462;2022-08-23T05:26:11;7.68;;;6.88;;
12832;SDS011;6483;51.310;4.462;2022-08-23T05:28:39;10.65;;;7.38;;
12832;SDS011;6483;51.310;4.462;2022-08-23T05:31:11;8.15;;;7.15;;
12832;SDS011;6483;51.310;4.462;2022-08-23T05:33:39;8.50;;;6.97;;
12832;SDS011;6483;51.310;4.462;2022-08-23T05:36:07;10.15;;;7.72;;
12832;SDS011;6483;51.310;4.462;2022-08-23T05:38:35;10.15;;;7.15;;
12832;SDS011;6483;51.310;4.462;2022-08-23T05:41:02;8.63;;;7.55;;
12832;SDS011;6483;51.310;4.462;2022-08-23T05:43:29;8.80;;;7.28;;
12832;SDS011;6483;51.310;4.462;2022-08-23T05:48:35;8.95;;;7.80;;
12832;SDS011;6483;51.310;4.462;2022-08-23T05:53:51;8.85;;;7.78;;
12832;SDS011;6483;51.310;4.462;2022-08-23T05:58:52;13.93;;;8.40;;
12832;SDS011;6483;51.310;4.462;2022-08-23T06:01:19;8.75;;;7.55;;
12832;SDS011;6483;51.310;4.462;2022-08-23T06:03:52;8.93;;;7.88;;
12832;SDS011;6483;51.310;4.462;2022-08-23T06:06:21;10.70;;;7.22;;
12832;SDS011;6483;51.310;4.462;2022-08-23T06:08:47;10.35;;;7.97;;
12832;SDS011;6483;51.310;4.462;2022-08-23T06:11:17;9.57;;;7.95;;
12832;SDS011;6483;51.310;4.462;2022-08-23T06:13:48;11.63;;;9.00;;
12832;SDS011;6483;51.310;4.462;2022-08-23T06:16:19;8.82;;;7.93;;
12832;SDS011;6483;51.310;4.462;2022-08-23T06:19:06;11.13;;;8.38;;
12832;SDS011;6483;51.310;4.462;2022-08-23T06:21:36;10.60;;;8.07;;
12832;SDS011;6483;51.310;4.462;2022-08-23T06:24:02;10.48;;;8.32;;
12832;SDS011;6483;51.310;4.462;2022-08-23T06:26:33;12.07;;;9.77;;
12832;SDS011;6483;51.310;4.462;2022-08-23T06:29:03;13.18;;;9.88;;
12832;SDS011;6483;51.310;4.462;2022-08-23T06:31:39;12.88;;;9.05;;
12832;SDS011;6483;51.310;4.462;2022-08-23T06:34:10;10.82;;;9.60;;
12832;SDS011;6483;51.310;4.462;2022-08-23T06:36:40;13.50;;;9.02;;
12832;SDS011;6483;51.310;4.462;2022-08-23T06:39:07;12.45;;;8.98;;
12832;SDS011;6483;51.310;4.462;2022-08-23T06:41:37;10.05;;;7.68;;
12832;SDS011;6483;51.310;4.462;2022-08-23T06:44:07;9.55;;;7.20;;
12832;SDS011;6483;51.310;4.462;2022-08-23T06:46:37;10.55;;;7.20;;
12832;SDS011;6483;51.310;4.462;2022-08-23T06:49:04;12.95;;;8.23;;
12832;SDS011;6483;51.310;4.462;2022-08-23T06:51:34;8.30;;;6.78;;
12832;SDS011;6483;51.310;4.462;2022-08-23T06:54:04;11.85;;;7.07;;
12832;SDS011;6483;51.310;4.462;2022-08-23T06:56:33;9.98;;;6.70;;
12832;SDS011;6483;51.310;4.462;2022-08-23T06:59:00;13.85;;;8.48;;
12832;SDS011;6483;51.310;4.462;2022-08-23T07:04:15;12.40;;;8.30;;
12832;SDS011;6483;51.310;4.462;2022-08-23T07:06:44;14.70;;;7.70;;
12832;SDS011;6483;51.310;4.462;2022-08-23T07:09:10;10.25;;;7.57;;
12832;SDS011;6483;51.310;4.462;2022-08-23T07:11:36;13.05;;;8.32;;
12832;SDS011;6483;51.310;4.462;2022-08-23T07:14:04;19.55;;;10.13;;
12832;SDS011;6483;51.310;4.462;2022-08-23T07:16:39;18.40;;;10.05;;
12832;SDS011;6483;51.310;4.462;2022-08-23T07:19:14;19.10;;;10.50;;
12832;SDS011;6483;51.310;4.462;2022-08-23T07:21:42;13.70;;;8.82;;
12832;SDS011;6483;51.310;4.462;2022-08-23T07:24:09;14.95;;;9.63;;
12832;SDS011;6483;51.310;4.462;2022-08-23T07:26:35;14.77;;;9.80;;
12832;SDS011;6483;51.310;4.462;2022-08-23T07:29:03;15.85;;;10.07;;
12832;SDS011;6483;51.310;4.462;2022-08-23T07:31:30;19.40;;;9.45;;
12832;SDS011;6483;51.310;4.462;2022-08-23T07:33:58;17.13;;;10.70;;
12832;SDS011;6483;51.310;4.462;2022-08-23T07:36:26;17.25;;;9.25;;
12832;SDS011;6483;51.310;4.462;2022-08-23T07:38:53;15.52;;;8.23;;
12832;SDS011;6483;51.310;4.462;2022-08-23T07:41:21;12.95;;;7.43;;
12832;SDS011;6483;51.310;4.462;2022-08-23T07:43:48;16.20;;;8.82;;
12832;SDS011;6483;51.310;4.462;2022-08-23T07:46:15;16.05;;;7.85;;
12832;SDS011;6483;51.310;4.462;2022-08-23T07:48:40;15.45;;;6.93;;
12832;SDS011;6483;51.310;4.462;2022-08-23T07:51:09;14.32;;;6.70;;
12832;SDS011;6483;51.310;4.462;2022-08-23T07:53:36;12.60;;;7.05;;
12832;SDS011;6483;51.310;4.462;2022-08-23T07:56:03;10.30;;;5.20;;
12832;SDS011;6483;51.310;4.462;2022-08-23T07:58:33;13.18;;;5.80;;
12832;SDS011;6483;51.310;4.462;2022-08-23T08:01:12;12.13;;;4.90;;
12832;SDS011;6483;51.310;4.462;2022-08-23T08:03:41;12.52;;;4.32;;
12832;SDS011;6483;51.310;4.462;2022-08-23T08:06:12;8.07;;;4.25;;
12832;SDS011;6483;51.310;4.462;2022-08-23T08:08:40;6.90;;;3.47;;
12832;SDS011;6483;51.310;4.462;2022-08-23T08:11:07;5.35;;;3.22;;
12832;SDS011;6483;51.310;4.462;2022-08-23T08:13:39;8.10;;;3.85;;
12832;SDS011;6483;51.310;4.462;2022-08-23T08:16:06;7.07;;;3.20;;
12832;SDS011;6483;51.310;4.462;2022-08-23T08:18:33;8.40;;;2.80;;
12832;SDS011;6483;51.310;4.462;2022-08-23T08:21:02;6.15;;;3.13;;
12832;SDS011;6483;51.310;4.462;2022-08-23T08:23:28;7.30;;;3.15;;
12832;SDS011;6483;51.310;4.462;2022-08-23T08:26:01;8.30;;;2.90;;
12832;SDS011;6483;51.310;4.462;2022-08-23T08:28:29;9.43;;;2.83;;
12832;SDS011;6483;51.310;4.462;2022-08-23T08:30:55;7.72;;;2.80;;
12832;SDS011;6483;51.310;4.462;2022-08-23T08:33:21;7.30;;;2.78;;
12832;SDS011;6483;51.310;4.462;2022-08-23T08:35:47;10.70;;;2.38;;
12832;SDS011;6483;51.310;4.462;2022-08-23T08:38:13;8.90;;;2.60;;
12832;SDS011;6483;51.310;4.462;2022-08-23T08:40:39;4.75;;;2.20;;
12832;SDS011;6483;51.310;4.462;2022-08-23T08:48:39;10.57;;;2.97;;
12832;SDS011;6483;51.310;4.462;2022-08-23T08:54:14;9.57;;;2.40;;
12832;SDS011;6483;51.310;4.462;2022-08-23T08:56:44;11.48;;;3.10;;
12832;SDS011;6483;51.310;4.462;2022-08-23T08:59:14;5.38;;;2.20;;
12832;SDS011;6483;51.310;4.462;2022-08-23T09:01:48;5.50;;;1.73;;
12832;SDS011;6483;51.310;4.462;2022-08-23T09:04:14;7.80;;;1.83;;
12832;SDS011;6483;51.310;4.462;2022-08-23T09:15:19;7.95;;;2.40;;
12832;SDS011;6483;51.310;4.462;2022-08-23T09:17:53;8.68;;;2.00;;
12832;SDS011;6483;51.310;4.462;2022-08-23T09:20:22;5.68;;;1.98;;
12832;SDS011;6483;51.310;4.462;2022-08-23T09:22:50;6.45;;;1.90;;
12832;SDS011;6483;51.310;4.462;2022-08-23T09:25:22;6.35;;;1.98;;
12832;SDS011;6483;51.310;4.462;2022-08-23T09:27:48;5.85;;;1.70;;
12832;SDS011;6483;51.310;4.462;2022-08-23T09:30:15;7.07;;;2.13;;
12832;SDS011;6483;51.310;4.462;2022-08-23T09:32:44;3.80;;;1.70;;
12832;SDS011;6483;51.310;4.462;2022-08-23T09:35:17;4.13;;;1.33;;
12832;SDS011;6483;51.310;4.462;2022-08-23T09:40:49;3.47;;;1.35;;
12832;SDS011;6483;51.310;4.462;2022-08-23T09:43:19;5.10;;;1.45;;
12832;SDS011;6483;51.310;4.462;2022-08-23T09:56:34;3.67;;;1.30;;
12832;SDS011;6483;51.310;4.462;2022-08-23T09:59:03;4.85;;;1.30;;
12832;SDS011;6483;51.310;4.462;2022-08-23T10:02:04;2.60;;;1.30;;
12832;SDS011;6483;51.310;4.462;2022-08-23T10:05:05;2.17;;;1.58;;
12832;SDS011;6483;51.310;4.462;2022-08-23T10:07:43;4.10;;;1.20;;
12832;SDS011;6483;51.310;4.462;2022-08-23T10:10:31;3.60;;;1.42;;
12832;SDS011;6483;51.310;4.462;2022-08-23T10:13:02;5.57;;;1.92;;
12832;SDS011;6483;51.310;4.462;2022-08-23T10:16:16;2.92;;;1.38;;
12832;SDS011;6483;51.310;4.462;2022-08-23T10:21:37;5.25;;;1.70;;
12832;SDS011;6483;51.310;4.462;2022-08-23T10:30:13;3.10;;;1.60;;
12832;SDS011;6483;51.310;4.462;2022-08-23T10:32:57;3.42;;;1.42;;
12832;SDS011;6483;51.310;4.462;2022-08-23T10:35:48;1.77;;;1.10;;
12832;SDS011;6483;51.310;4.462;2022-08-23T10:41:17;2.22;;;1.20;;
12832;SDS011;6483;51.310;4.462;2022-08-23T10:49:52;5.05;;;1.40;;
12832;SDS011;6483;51.310;4.462;2022-08-23T10:52:21;2.72;;;1.45;;
12832;SDS011;6483;51.310;4.462;2022-08-23T10:54:57;3.15;;;1.23;;
12832;SDS011;6483;51.310;4.462;2022-08-23T10:57:40;2.10;;;0.98;;
12832;SDS011;6483;51.310;4.462;2022-08-23T11:00:08;4.47;;;1.10;;
12832;SDS011;6483;51.310;4.462;2022-08-23T11:05:36;4.05;;;1.20;;
12832;SDS011;6483;51.310;4.462;2022-08-23T11:08:09;3.78;;;1.10;;
12832;SDS011;6483;51.310;4.462;2022-08-23T11:15:43;2.45;;;1.70;;
12832;SDS011;6483;51.310;4.462;2022-08-23T11:34:11;3.72;;;1.30;;
12832;SDS011;6483;51.310;4.462;2022-08-23T11:45:22;4.75;;;1.65;;
12832;SDS011;6483;51.310;4.462;2022-08-23T11:51:08;3.13;;;1.10;;
12832;SDS011;6483;51.310;4.462;2022-08-23T11:54:00;3.67;;;1.10;;
12832;SDS011;6483;51.310;4.462;2022-08-23T11:56:53;1.83;;;0.98;;
12832;SDS011;6483;51.310;4.462;2022-08-23T12:18:52;2.08;;;1.08;;
12832;SDS011;6483;51.310;4.462;2022-08-23T12:21:26;1.48;;;0.65;;
12832;SDS011;6483;51.310;4.462;2022-08-23T12:23:59;1.60;;;0.77;;
12832;SDS011;6483;51.310;4.462;2022-08-23T12:32:23;0.45;;;0.43;;
12832;SDS011;6483;51.310;4.462;2022-08-23T12:40:33;1.80;;;0.55;;
12832;SDS011;6483;51.310;4.462;2022-08-23T12:43:15;3.08;;;0.47;;
12832;SDS011;6483;51.310;4.462;2022-08-23T12:45:48;1.88;;;0.50;;
12832;SDS011;6483;51.310;4.462;2022-08-23T12:48:20;0.85;;;0.40;;
12832;SDS011;6483;51.310;4.462;2022-08-23T12:51:00;0.95;;;0.68;;
12832;SDS011;6483;51.310;4.462;2022-08-23T12:53:36;2.25;;;0.93;;
12832;SDS011;6483;51.310;4.462;2022-08-23T12:56:07;2.78;;;0.68;;
12832;SDS011;6483;51.310;4.462;2022-08-23T12:58:51;1.10;;;0.70;;
12832;SDS011;6483;51.310;4.462;2022-08-23T13:01:31;0.50;;;0.40;;
12832;SDS011;6483;51.310;4.462;2022-08-23T13:04:03;2.58;;;0.70;;
12832;SDS011;6483;51.310;4.462;2022-08-23T13:06:38;1.23;;;0.70;;
12832;SDS011;6483;51.310;4.462;2022-08-23T13:09:12;1.98;;;0.70;;
12832;SDS011;6483;51.310;4.462;2022-08-23T13:11:45;1.17;;;0.45;;
12832;SDS011;6483;51.310;4.462;2022-08-23T13:19:57;1.73;;;0.90;;
12832;SDS011;6483;51.310;4.462;2022-08-23T13:22:38;1.40;;;0.57;;
12832;SDS011;6483;51.310;4.462;2022-08-23T13:25:23;0.95;;;0.57;;
12832;SDS011;6483;51.310;4.462;2022-08-23T13:27:53;0.50;;;0.50;;
12832;SDS011;6483;51.310;4.462;2022-08-23T13:30:22;1.35;;;0.60;;
12832;SDS011;6483;51.310;4.462;2022-08-23T13:32:51;2.38;;;0.70;;
12832;SDS011;6483;51.310;4.462;2022-08-23T13:35:41;0.98;;;0.82;;
12832;SDS011;6483;51.310;4.462;2022-08-23T13:40:55;1.20;;;0.70;;
12832;SDS011;6483;51.310;4.462;2022-08-23T13:43:30;1.02;;;0.93;;
12832;SDS011;6483;51.310;4.462;2022-08-23T13:46:10;2.33;;;0.70;;
12832;SDS011;6483;51.310;4.462;2022-08-23T13:48:44;0.90;;;0.75;;
12832;SDS011;6483;51.310;4.462;2022-08-23T13:51:25;2.30;;;0.88;;
12832;SDS011;6483;51.310;4.462;2022-08-23T13:53:56;1.17;;;0.60;;
12832;SDS011;6483;51.310;4.462;2022-08-23T13:56:23;2.10;;;0.65;;
12832;SDS011;6483;51.310;4.462;2022-08-23T13:58:52;4.22;;;0.80;;
12832;SDS011;6483;51.310;4.462;2022-08-23T14:01:19;2.17;;;0.55;;
12832;SDS011;6483;51.310;4.462;2022-08-23T14:03:45;2.13;;;0.63;;
12832;SDS011;6483;51.310;4.462;2022-08-23T14:06:10;2.30;;;0.60;;
12832;SDS011;6483;51.310;4.462;2022-08-23T14:08:36;0.95;;;0.52;;
12832;SDS011;6483;51.310;4.462;2022-08-23T14:11:02;1.80;;;0.60;;
12832;SDS011;6483;51.310;4.462;2022-08-23T14:13:28;1.20;;;0.70;;
12832;SDS011;6483;51.310;4.462;2022-08-23T14:15:55;1.23;;;0.60;;
12832;SDS011;6483;51.310;4.462;2022-08-23T14:18:27;0.70;;;0.63;;
12832;SDS011;6483;51.310;4.462;2022-08-23T14:20:52;0.70;;;0.70;;
12832;SDS011;6483;51.310;4.462;2022-08-23T14:23:21;1.73;;;0.70;;
12832;SDS011;6483;51.310;4.462;2022-08-23T14:25:47;0.77;;;0.73;;
12832;SDS011;6483;51.310;4.462;2022-08-23T14:28:15;1.02;;;0.60;;
12832;SDS011;6483;51.310;4.462;2022-08-23T14:30:43;0.80;;;0.60;;
12832;SDS011;6483;51.310;4.462;2022-08-23T14:33:10;2.00;;;0.80;;
12832;SDS011;6483;51.310;4.462;2022-08-23T14:35:36;2.10;;;0.65;;
12832;SDS011;6483;51.310;4.462;2022-08-23T14:38:04;1.05;;;0.55;;
12832;SDS011;6483;51.310;4.462;2022-08-23T14:40:30;0.63;;;0.50;;
12832;SDS011;6483;51.310;4.462;2022-08-23T14:42:55;0.65;;;0.60;;
12832;SDS011;6483;51.310;4.462;2022-08-23T14:45:23;3.08;;;0.90;;
12832;SDS011;6483;51.310;4.462;2022-08-23T14:47:50;1.58;;;0.75;;
12832;SDS011;6483;51.310;4.462;2022-08-23T14:50:15;1.02;;;0.70;;
12832;SDS011;6483;51.310;4.462;2022-08-23T14:52:44;0.85;;;0.73;;
12832;SDS011;6483;51.310;4.462;2022-08-23T14:55:14;0.80;;;0.77;;
12832;SDS011;6483;51.310;4.462;2022-08-23T14:57:43;1.27;;;0.70;;
12832;SDS011;6483;51.310;4.462;2022-08-23T15:00:16;1.33;;;0.70;;
12832;SDS011;6483;51.310;4.462;2022-08-23T15:02:46;1.52;;;0.88;;
12832;SDS011;6483;51.310;4.462;2022-08-23T15:05:14;1.70;;;0.90;;
12832;SDS011;6483;51.310;4.462;2022-08-23T15:07:40;3.25;;;0.70;;
12832;SDS011;6483;51.310;4.462;2022-08-23T15:10:07;1.58;;;0.80;;
12832;SDS011;6483;51.310;4.462;2022-08-23T15:12:35;3.38;;;0.82;;
12832;SDS011;6483;51.310;4.462;2022-08-23T15:15:05;0.80;;;0.80;;
12832;SDS011;6483;51.310;4.462;2022-08-23T15:17:34;1.02;;;0.88;;
12832;SDS011;6483;51.310;4.462;2022-08-23T15:20:05;1.80;;;0.90;;
12832;SDS011;6483;51.310;4.462;2022-08-23T15:22:31;3.10;;;0.80;;
12832;SDS011;6483;51.310;4.462;2022-08-23T15:25:00;0.93;;;0.82;;
12832;SDS011;6483;51.310;4.462;2022-08-23T15:27:26;0.63;;;0.63;;
12832;SDS011;6483;51.310;4.462;2022-08-23T15:29:52;0.65;;;0.63;;
12832;SDS011;6483;51.310;4.462;2022-08-23T15:32:21;1.67;;;1.30;;
12832;SDS011;6483;51.310;4.462;2022-08-23T15:34:47;1.48;;;0.93;;
12832;SDS011;6483;51.310;4.462;2022-08-23T15:37:13;1.38;;;0.70;;
12832;SDS011;6483;51.310;4.462;2022-08-23T15:39:41;0.52;;;0.52;;
12832;SDS011;6483;51.310;4.462;2022-08-23T15:42:07;3.70;;;1.00;;
12832;SDS011;6483;51.310;4.462;2022-08-23T15:44:42;0.70;;;0.70;;
12832;SDS011;6483;51.310;4.462;2022-08-23T15:47:21;0.50;;;0.50;;
12832;SDS011;6483;51.310;4.462;2022-08-23T15:49:48;1.80;;;0.70;;
12832;SDS011;6483;51.310;4.462;2022-08-23T15:52:18;0.80;;;0.80;;
12832;SDS011;6483;51.310;4.462;2022-08-23T15:54:47;1.70;;;1.00;;
12832;SDS011;6483;51.310;4.462;2022-08-23T15:57:14;1.40;;;0.80;;
12832;SDS011;6483;51.310;4.462;2022-08-23T15:59:41;0.95;;;0.60;;
12832;SDS011;6483;51.310;4.462;2022-08-23T16:02:08;1.13;;;1.05;;
12832;SDS011;6483;51.310;4.462;2022-08-23T16:04:54;1.15;;;0.95;;
12832;SDS011;6483;51.310;4.462;2022-08-23T16:07:22;0.70;;;0.68;;
12832;SDS011;6483;51.310;4.462;2022-08-23T16:09:50;0.95;;;0.80;;
12832;SDS011;6483;51.310;4.462;2022-08-23T16:12:16;0.70;;;0.70;;
12832;SDS011;6483;51.310;4.462;2022-08-23T16:14:45;1.02;;;0.80;;
12832;SDS011;6483;51.310;4.462;2022-08-23T16:17:11;1.00;;;0.80;;
12832;SDS011;6483;51.310;4.462;2022-08-23T16:19:39;1.60;;;0.90;;
12832;SDS011;6483;51.310;4.462;2022-08-23T16:22:04;1.25;;;1.00;;
12832;SDS011;6483;51.310;4.462;2022-08-23T16:24:36;0.88;;;0.80;;
12832;SDS011;6483;51.310;4.462;2022-08-23T16:27:03;1.98;;;1.10;;
12832;SDS011;6483;51.310;4.462;2022-08-23T16:29:33;2.30;;;0.98;;
12832;SDS011;6483;51.310;4.462;2022-08-23T16:32:05;1.10;;;1.00;;
12832;SDS011;6483;51.310;4.462;2022-08-23T16:34:32;0.98;;;0.80;;
12832;SDS011;6483;51.310;4.462;2022-08-23T16:36:58;1.10;;;0.90;;
12832;SDS011;6483;51.310;4.462;2022-08-23T16:39:26;1.15;;;1.10;;
12832;SDS011;6483;51.310;4.462;2022-08-23T16:41:53;2.15;;;0.90;;
12832;SDS011;6483;51.310;4.462;2022-08-23T16:44:19;1.08;;;0.73;;
12832;SDS011;6483;51.310;4.462;2022-08-23T16:46:47;1.85;;;1.20;;
12832;SDS011;6483;51.310;4.462;2022-08-23T16:49:15;2.22;;;1.02;;
12832;SDS011;6483;51.310;4.462;2022-08-23T16:51:43;1.02;;;0.88;;
12832;SDS011;6483;51.310;4.462;2022-08-23T16:54:09;2.38;;;0.98;;
12832;SDS011;6483;51.310;4.462;2022-08-23T16:56:35;0.80;;;0.80;;
12832;SDS011;6483;51.310;4.462;2022-08-23T16:59:06;0.90;;;0.90;;
12832;SDS011;6483;51.310;4.462;2022-08-23T17:01:43;1.10;;;1.00;;
12832;SDS011;6483;51.310;4.462;2022-08-23T17:04:18;0.85;;;0.85;;
12832;SDS011;6483;51.310;4.462;2022-08-23T17:06:45;2.10;;;0.90;;
12832;SDS011;6483;51.310;4.462;2022-08-23T17:09:11;2.35;;;1.00;;
12832;SDS011;6483;51.310;4.462;2022-08-23T17:11:38;1.20;;;0.98;;
12832;SDS011;6483;51.310;4.462;2022-08-23T17:14:06;1.08;;;0.88;;
12832;SDS011;6483;51.310;4.462;2022-08-23T17:16:33;1.23;;;1.00;;
12832;SDS011;6483;51.310;4.462;2022-08-23T17:18:59;1.65;;;1.00;;
12832;SDS011;6483;51.310;4.462;2022-08-23T17:21:28;3.45;;;1.23;;
12832;SDS011;6483;51.310;4.462;2022-08-23T17:23:55;3.33;;;0.95;;
12832;SDS011;6483;51.310;4.462;2022-08-23T17:26:21;2.63;;;1.02;;
12832;SDS011;6483;51.310;4.462;2022-08-23T17:28:47;3.22;;;1.30;;
12832;SDS011;6483;51.310;4.462;2022-08-23T17:31:33;1.13;;;1.02;;
12832;SDS011;6483;51.310;4.462;2022-08-23T17:33:59;2.28;;;1.58;;
12832;SDS011;6483;51.310;4.462;2022-08-23T17:36:32;2.05;;;1.40;;
12832;SDS011;6483;51.310;4.462;2022-08-23T17:39:00;2.45;;;1.38;;